sensor_id;sensor_type;location;lat;lon;timestamp;pressure;altitude;pressure_sealevel;temperature;humidity
27334;BME280;14817;57.104;-2.094;2023-02-08T00:02:08;102061.50;;;3.40;100.00
27334;BME280;14817;57.104;-2.094;2023-02-08T00:04:35;102061.50;;;3.40;100.00
27334;BME280;14817;57.104;-2.094;2023-02-08T00:07:02;102062.56;;;3.36;100.00
27334;BME280;14817;57.104;-2.094;2023-02-08T00:09:28;102053.09;;;3.31;100.00
27334;BME280;14817;57.104;-2.094;2023-02-08T00:11:55;102044.44;;;3.27;100.00
27334;BME280;14817;57.104;-2.094;2023-02-08T00:14:22;102031.84;;;3.32;100.00
27334;BME280;14817;57.104;-2.094;2023-02-08T00:16:48;102027.13;;;3.39;100.00
27334;BME280;14817;57.104;-2.094;2023-02-08T00:19:15;102008.38;;;3.43;100.00
27334;BME280;14817;57.104;-2.094;2023-02-08T00:21:42;101999.66;;;3.41;100.00
27334;BME280;14817;57.104;-2.094;2023-02-08T00:24:08;101995.94;;;3.45;100.00
27334;BME280;14817;57.104;-2.094;2023-02-08T00:26:35;102003.25;;;3.40;100.00
27334;BME280;14817;57.104;-2.094;2023-02-08T00:29:02;101997.94;;;3.40;100.00
27334;BME280;14817;57.104;-2.094;2023-02-08T00:31:28;102001.09;;;3.48;100.00
27334;BME280;14817;57.104;-2.094;2023-02-08T00:33:55;101985.94;;;3.52;100.00
27334;BME280;14817;57.104;-2.094;2023-02-08T00:36:24;101992.59;;;3.61;100.00
27334;BME280;14817;57.104;-2.094;2023-02-08T00:38:50;101989.06;;;3.60;100.00
27334;BME280;14817;57.104;-2.094;2023-02-08T00:41:19;101997.34;;;3.54;100.00
27334;BME280;14817;57.104;-2.094;2023-02-08T00:43:46;101993.94;;;3.51;100.00
27334;BME280;14817;57.104;-2.094;2023-02-08T00:46:13;101993.28;;;3.45;100.00
27334;BME280;14817;57.104;-2.094;2023-02-08T00:48:40;101973.91;;;3.45;100.00
27334;BME280;14817;57.104;-2.094;2023-02-08T00:51:08;101957.59;;;3.35;100.00
27334;BME280;14817;57.104;-2.094;2023-02-08T00:53:35;101956.72;;;3.35;100.00
27334;BME280;14817;57.104;-2.094;2023-02-08T00:56:03;101960.41;;;3.31;100.00
27334;BME280;14817;57.104;-2.094;2023-02-08T00:58:30;101957.72;;;3.32;100.00
27334;BME280;14817;57.104;-2.094;2023-02-08T01:00:57;101943.28;;;3.39;100.00
27334;BME280;14817;57.104;-2.094;2023-02-08T01:03:24;101937.84;;;3.42;100.00
27334;BME280;14817;57.104;-2.094;2023-02-08T01:05:50;101939.69;;;3.40;100.00
27334;BME280;14817;57.104;-2.094;2023-02-08T01:08:17;101923.66;;;3.43;100.00
27334;BME280;14817;57.104;-2.094;2023-02-08T01:10:45;101908.84;;;3.39;100.00
27334;BME280;14817;57.104;-2.094;2023-02-08T01:13:12;101896.25;;;3.44;100.00
27334;BME280;14817;57.104;-2.094;2023-02-08T01:15:39;101880.19;;;3.47;100.00
27334;BME280;14817;57.104;-2.094;2023-02-08T01:18:06;101880.97;;;3.50;100.00
27334;BME280;14817;57.104;-2.094;2023-02-08T01:20:33;101894.31;;;3.48;100.00
27334;BME280;14817;57.104;-2.094;2023-02-08T01:23:02;101892.31;;;3.53;100.00
27334;BME280;14817;57.104;-2.094;2023-02-08T01:25:31;101890.59;;;3.52;100.00
27334;BME280;14817;57.104;-2.094;2023-02-08T01:27:57;101888.81;;;3.53;100.00
27334;BME280;14817;57.104;-2.094;2023-02-08T01:30:24;101902.09;;;3.51;100.00
27334;BME280;14817;57.104;-2.094;2023-02-08T01:32:51;101898.59;;;3.51;100.00
27334;BME280;14817;57.104;-2.094;2023-02-08T01:35:18;101897.59;;;3.53;100.00
27334;BME280;14817;57.104;-2.094;2023-02-08T01:37:44;101902.31;;;3.46;100.00
27334;BME280;14817;57.104;-2.094;2023-02-08T01:40:11;101899.97;;;3.40;100.00
27334;BME280;14817;57.104;-2.094;2023-02-08T01:42:38;101900.91;;;3.39;100.00
27334;BME280;14817;57.104;-2.094;2023-02-08T01:45:24;101897.47;;;3.37;100.00
27334;BME280;14817;57.104;-2.094;2023-02-08T01:47:53;101884.53;;;3.31;100.00
27334;BME280;14817;57.104;-2.094;2023-02-08T01:50:21;101895.47;;;3.42;100.00
27334;BME280;14817;57.104;-2.094;2023-02-08T01:52:48;101891.00;;;3.43;100.00
27334;BME280;14817;57.104;-2.094;2023-02-08T01:55:25;101889.38;;;3.40;100.00
27334;BME280;14817;57.104;-2.094;2023-02-08T01:57:54;101879.63;;;3.41;100.00
27334;BME280;14817;57.104;-2.094;2023-02-08T02:00:23;101873.56;;;3.39;100.00
27334;BME280;14817;57.104;-2.094;2023-02-08T02:02:51;101878.16;;;3.35;100.00
27334;BME280;14817;57.104;-2.094;2023-02-08T02:05:23;101864.25;;;3.30;100.00
27334;BME280;14817;57.104;-2.094;2023-02-08T02:07:51;101868.69;;;3.30;100.00
27334;BME280;14817;57.104;-2.094;2023-02-08T02:10:24;101869.25;;;3.36;100.00
27334;BME280;14817;57.104;-2.094;2023-02-08T02:12:51;101860.25;;;3.40;100.00
27334;BME280;14817;57.104;-2.094;2023-02-08T02:15:19;101859.31;;;3.41;100.00
27334;BME280;14817;57.104;-2.094;2023-02-08T02:17:45;101856.75;;;3.40;100.00
27334;BME280;14817;57.104;-2.094;2023-02-08T02:22:46;101863.06;;;3.37;100.00
27334;BME280;14817;57.104;-2.094;2023-02-08T02:33:27;101808.78;;;3.46;100.00
27334;BME280;14817;57.104;-2.094;2023-02-08T02:44:15;101806.47;;;3.57;100.00
27334;BME280;14817;57.104;-2.094;2023-02-08T02:46:49;101807.19;;;3.61;100.00
27334;BME280;14817;57.104;-2.094;2023-02-08T02:49:53;101804.59;;;3.59;100.00
27334;BME280;14817;57.104;-2.094;2023-02-08T02:52:11;101804.53;;;3.61;100.00
27334;BME280;14817;57.104;-2.094;2023-02-08T02:57:14;101788.78;;;3.58;100.00
27334;BME280;14817;57.104;-2.094;2023-02-08T02:59:41;101788.47;;;3.64;100.00
27334;BME280;14817;57.104;-2.094;2023-02-08T03:02:08;101788.41;;;3.65;100.00
27334;BME280;14817;57.104;-2.094;2023-02-08T03:09:50;101781.47;;;3.63;100.00
27334;BME280;14817;57.104;-2.094;2023-02-08T03:20:00;101772.59;;;3.64;100.00
27334;BME280;14817;57.104;-2.094;2023-02-08T03:25:00;101768.22;;;3.63;100.00
27334;BME280;14817;57.104;-2.094;2023-02-08T03:27:48;101767.44;;;3.61;100.00
27334;BME280;14817;57.104;-2.094;2023-02-08T03:30:26;101766.91;;;3.54;100.00
27334;BME280;14817;57.104;-2.094;2023-02-08T03:35:55;101765.16;;;3.53;100.00
27334;BME280;14817;57.104;-2.094;2023-02-08T03:38:26;101773.19;;;3.52;100.00
27334;BME280;14817;57.104;-2.094;2023-02-08T03:40:55;101778.34;;;3.55;100.00
27334;BME280;14817;57.104;-2.094;2023-02-08T03:43:30;101764.63;;;3.46;100.00
27334;BME280;14817;57.104;-2.094;2023-02-08T03:48:25;101752.63;;;3.39;100.00
27334;BME280;14817;57.104;-2.094;2023-02-08T03:50:53;101742.03;;;3.39;100.00
27334;BME280;14817;57.104;-2.094;2023-02-08T03:53:22;101735.97;;;3.37;100.00
27334;BME280;14817;57.104;-2.094;2023-02-08T03:55:51;101729.72;;;3.38;100.00
27334;BME280;14817;57.104;-2.094;2023-02-08T03:58:24;101725.44;;;3.36;100.00
27334;BME280;14817;57.104;-2.094;2023-02-08T04:01:06;101705.09;;;3.36;100.00
27334;BME280;14817;57.104;-2.094;2023-02-08T04:03:34;101711.97;;;3.40;100.00
27334;BME280;14817;57.104;-2.094;2023-02-08T04:06:02;101698.00;;;3.37;100.00
27334;BME280;14817;57.104;-2.094;2023-02-08T04:08:28;101684.94;;;3.34;100.00
27334;BME280;14817;57.104;-2.094;2023-02-08T04:10:55;101684.47;;;3.43;100.00
27334;BME280;14817;57.104;-2.094;2023-02-08T04:13:23;101682.91;;;3.39;100.00
27334;BME280;14817;57.104;-2.094;2023-02-08T04:15:50;101679.34;;;3.40;100.00
27334;BME280;14817;57.104;-2.094;2023-02-08T04:18:16;101672.19;;;3.42;100.00
27334;BME280;14817;57.104;-2.094;2023-02-08T04:20:43;101664.00;;;3.46;100.00
27334;BME280;14817;57.104;-2.094;2023-02-08T04:23:09;101654.09;;;3.50;100.00
27334;BME280;14817;57.104;-2.094;2023-02-08T04:25:36;101654.25;;;3.47;100.00
27334;BME280;14817;57.104;-2.094;2023-02-08T04:28:03;101644.81;;;3.41;100.00
27334;BME280;14817;57.104;-2.094;2023-02-08T04:30:30;101642.63;;;3.50;100.00
27334;BME280;14817;57.104;-2.094;2023-02-08T04:32:56;101637.66;;;3.43;100.00
27334;BME280;14817;57.104;-2.094;2023-02-08T04:35:25;101641.72;;;3.51;100.00
27334;BME280;14817;57.104;-2.094;2023-02-08T04:37:52;101639.59;;;3.57;100.00
27334;BME280;14817;57.104;-2.094;2023-02-08T04:40:18;101625.41;;;3.58;100.00
27334;BME280;14817;57.104;-2.094;2023-02-08T04:42:45;101616.63;;;3.58;100.00
27334;BME280;14817;57.104;-2.094;2023-02-08T04:45:11;101619.25;;;3.58;100.00
27334;BME280;14817;57.104;-2.094;2023-02-08T04:47:38;101610.41;;;3.59;100.00
27334;BME280;14817;57.104;-2.094;2023-02-08T04:50:05;101605.63;;;3.65;100.00
27334;BME280;14817;57.104;-2.094;2023-02-08T04:52:31;101593.81;;;3.71;100.00
27334;BME280;14817;57.104;-2.094;2023-02-08T04:54:58;101600.09;;;3.70;100.00
27334;BME280;14817;57.104;-2.094;2023-02-08T04:57:24;101576.06;;;3.73;100.00
27334;BME280;14817;57.104;-2.094;2023-02-08T04:59:51;101579.72;;;3.71;100.00
27334;BME280;14817;57.104;-2.094;2023-02-08T05:02:18;101568.22;;;3.72;100.00
27334;BME280;14817;57.104;-2.094;2023-02-08T05:04:45;101580.75;;;3.68;100.00
27334;BME280;14817;57.104;-2.094;2023-02-08T05:07:11;101579.81;;;3.69;100.00
27334;BME280;14817;57.104;-2.094;2023-02-08T05:09:38;101576.06;;;3.73;100.00
27334;BME280;14817;57.104;-2.094;2023-02-08T05:12:04;101569.91;;;3.73;100.00
27334;BME280;14817;57.104;-2.094;2023-02-08T05:14:31;101581.53;;;3.70;100.00
27334;BME280;14817;57.104;-2.094;2023-02-08T05:16:58;101577.59;;;3.77;100.00
27334;BME280;14817;57.104;-2.094;2023-02-08T05:19:25;101576.06;;;3.73;100.00
27334;BME280;14817;57.104;-2.094;2023-02-08T05:21:51;101584.78;;;3.75;100.00
27334;BME280;14817;57.104;-2.094;2023-02-08T05:24:18;101591.88;;;3.75;100.00
27334;BME280;14817;57.104;-2.094;2023-02-08T05:26:44;101595.22;;;3.78;100.00
27334;BME280;14817;57.104;-2.094;2023-02-08T05:29:11;101607.19;;;3.70;100.00
27334;BME280;14817;57.104;-2.094;2023-02-08T05:31:38;101604.59;;;3.68;100.00
27334;BME280;14817;57.104;-2.094;2023-02-08T05:34:04;101593.16;;;3.67;100.00
27334;BME280;14817;57.104;-2.094;2023-02-08T05:36:31;101595.88;;;3.66;100.00
27334;BME280;14817;57.104;-2.094;2023-02-08T05:38:58;101608.88;;;3.71;100.00
27334;BME280;14817;57.104;-2.094;2023-02-08T05:41:24;101595.56;;;3.72;100.00
27334;BME280;14817;57.104;-2.094;2023-02-08T05:43:51;101593.06;;;3.69;100.00
27334;BME280;14817;57.104;-2.094;2023-02-08T05:46:17;101588.38;;;3.74;100.00
27334;BME280;14817;57.104;-2.094;2023-02-08T05:48:45;101594.00;;;3.68;100.00
27334;BME280;14817;57.104;-2.094;2023-02-08T05:51:12;101587.16;;;3.64;100.00
27334;BME280;14817;57.104;-2.094;2023-02-08T05:53:38;101593.41;;;3.63;100.00
27334;BME280;14817;57.104;-2.094;2023-02-08T05:56:05;101592.53;;;3.62;100.00
27334;BME280;14817;57.104;-2.094;2023-02-08T05:58:32;101578.44;;;3.62;100.00
27334;BME280;14817;57.104;-2.094;2023-02-08T06:00:58;101573.66;;;3.68;100.00
27334;BME280;14817;57.104;-2.094;2023-02-08T06:03:25;101572.56;;;3.73;100.00
27334;BME280;14817;57.104;-2.094;2023-02-08T06:05:52;101559.56;;;3.84;100.00
27334;BME280;14817;57.104;-2.094;2023-02-08T06:08:19;101560.19;;;3.89;100.00
27334;BME280;14817;57.104;-2.094;2023-02-08T06:10:47;101556.34;;;3.95;100.00
27334;BME280;14817;57.104;-2.094;2023-02-08T06:13:14;101549.72;;;4.03;100.00
27334;BME280;14817;57.104;-2.094;2023-02-08T06:15:41;101562.78;;;4.06;100.00
27334;BME280;14817;57.104;-2.094;2023-02-08T06:18:07;101553.72;;;4.11;100.00
27334;BME280;14817;57.104;-2.094;2023-02-08T06:20:34;101566.38;;;4.21;100.00
27334;BME280;14817;57.104;-2.094;2023-02-08T06:23:01;101568.19;;;4.21;100.00
27334;BME280;14817;57.104;-2.094;2023-02-08T06:25:28;101584.34;;;4.16;100.00
27334;BME280;14817;57.104;-2.094;2023-02-08T06:27:54;101573.56;;;4.19;100.00
27334;BME280;14817;57.104;-2.094;2023-02-08T06:30:22;101574.25;;;4.23;100.00
27334;BME280;14817;57.104;-2.094;2023-02-08T06:32:49;101569.63;;;4.26;100.00
27334;BME280;14817;57.104;-2.094;2023-02-08T06:35:16;101568.63;;;4.29;100.00
27334;BME280;14817;57.104;-2.094;2023-02-08T06:37:42;101580.72;;;4.33;100.00
27334;BME280;14817;57.104;-2.094;2023-02-08T06:40:09;101581.41;;;4.37;100.00
27334;BME280;14817;57.104;-2.094;2023-02-08T06:42:36;101574.22;;;4.39;100.00
27334;BME280;14817;57.104;-2.094;2023-02-08T06:45:02;101590.50;;;4.48;100.00
27334;BME280;14817;57.104;-2.094;2023-02-08T06:47:29;101584.94;;;4.53;100.00
27334;BME280;14817;57.104;-2.094;2023-02-08T06:49:56;101573.13;;;4.59;100.00
27334;BME280;14817;57.104;-2.094;2023-02-08T06:52:23;101571.91;;;4.64;100.00
27334;BME280;14817;57.104;-2.094;2023-02-08T06:54:49;101560.09;;;4.54;100.00
27334;BME280;14817;57.104;-2.094;2023-02-08T06:57:16;101559.94;;;4.57;100.00
27334;BME280;14817;57.104;-2.094;2023-02-08T06:59:42;101567.63;;;4.62;100.00
27334;BME280;14817;57.104;-2.094;2023-02-08T07:02:13;101551.63;;;4.63;100.00
27334;BME280;14817;57.104;-2.094;2023-02-08T07:04:41;101529.44;;;4.64;100.00
27334;BME280;14817;57.104;-2.094;2023-02-08T07:07:07;101518.75;;;4.66;100.00
27334;BME280;14817;57.104;-2.094;2023-02-08T07:09:35;101504.28;;;4.72;100.00
27334;BME280;14817;57.104;-2.094;2023-02-08T07:12:01;101512.91;;;4.75;100.00
27334;BME280;14817;57.104;-2.094;2023-02-08T07:14:34;101502.00;;;4.80;100.00
27334;BME280;14817;57.104;-2.094;2023-02-08T07:17:01;101486.84;;;4.82;100.00
27334;BME280;14817;57.104;-2.094;2023-02-08T07:19:28;101500.78;;;4.85;100.00
27334;BME280;14817;57.104;-2.094;2023-02-08T07:21:55;101495.22;;;4.90;100.00
27334;BME280;14817;57.104;-2.094;2023-02-08T07:24:22;101495.69;;;4.97;100.00
27334;BME280;14817;57.104;-2.094;2023-02-08T07:26:49;101480.72;;;4.96;100.00
27334;BME280;14817;57.104;-2.094;2023-02-08T07:29:15;101486.03;;;4.96;100.00
27334;BME280;14817;57.104;-2.094;2023-02-08T07:31:42;101478.06;;;4.96;100.00
27334;BME280;14817;57.104;-2.094;2023-02-08T07:34:09;101477.88;;;4.99;100.00
27334;BME280;14817;57.104;-2.094;2023-02-08T07:36:35;101462.63;;;5.02;100.00
27334;BME280;14817;57.104;-2.094;2023-02-08T07:39:02;101471.91;;;5.09;100.00
27334;BME280;14817;57.104;-2.094;2023-02-08T07:41:29;101467.72;;;5.05;100.00
27334;BME280;14817;57.104;-2.094;2023-02-08T07:43:55;101477.13;;;5.11;100.00
27334;BME280;14817;57.104;-2.094;2023-02-08T07:46:22;101471.63;;;5.14;100.00
27334;BME280;14817;57.104;-2.094;2023-02-08T07:48:49;101476.69;;;5.19;100.00
27334;BME280;14817;57.104;-2.094;2023-02-08T07:51:15;101458.94;;;5.19;100.00
27334;BME280;14817;57.104;-2.094;2023-02-08T07:53:42;101452.56;;;5.22;100.00
27334;BME280;14817;57.104;-2.094;2023-02-08T07:56:09;101452.56;;;5.22;100.00
27334;BME280;14817;57.104;-2.094;2023-02-08T07:58:36;101459.78;;;5.20;100.00
27334;BME280;14817;57.104;-2.094;2023-02-08T08:01:02;101450.69;;;5.24;100.00
27334;BME280;14817;57.104;-2.094;2023-02-08T08:03:46;101445.38;;;5.24;100.00
27334;BME280;14817;57.104;-2.094;2023-02-08T08:06:13;101439.69;;;5.30;100.00
27334;BME280;14817;57.104;-2.094;2023-02-08T08:08:40;101435.88;;;5.34;100.00
27334;BME280;14817;57.104;-2.094;2023-02-08T08:11:07;101440.81;;;5.40;100.00
27334;BME280;14817;57.104;-2.094;2023-02-08T08:13:34;101436.91;;;5.46;100.00
27334;BME280;14817;57.104;-2.094;2023-02-08T08:16:01;101435.75;;;5.50;100.00
27334;BME280;14817;57.104;-2.094;2023-02-08T08:18:28;101433.03;;;5.51;100.00
27334;BME280;14817;57.104;-2.094;2023-02-08T08:20:55;101429.41;;;5.52;100.00
27334;BME280;14817;57.104;-2.094;2023-02-08T08:23:21;101424.00;;;5.54;100.00
27334;BME280;14817;57.104;-2.094;2023-02-08T08:25:49;101414.56;;;5.63;100.00
27334;BME280;14817;57.104;-2.094;2023-02-08T08:28:15;101413.72;;;5.62;100.00
27334;BME280;14817;57.104;-2.094;2023-02-08T08:30:43;101404.06;;;5.61;100.00
27334;BME280;14817;57.104;-2.094;2023-02-08T08:33:10;101389.50;;;5.67;100.00
27334;BME280;14817;57.104;-2.094;2023-02-08T08:35:37;101385.25;;;5.64;100.00
27334;BME280;14817;57.104;-2.094;2023-02-08T08:38:03;101377.81;;;5.69;100.00
27334;BME280;14817;57.104;-2.094;2023-02-08T08:40:30;101370.72;;;5.70;100.00
27334;BME280;14817;57.104;-2.094;2023-02-08T08:42:57;101371.47;;;5.72;100.00
27334;BME280;14817;57.104;-2.094;2023-02-08T08:45:23;101355.63;;;5.70;100.00
27334;BME280;14817;57.104;-2.094;2023-02-08T08:47:51;101367.69;;;5.76;100.00
27334;BME280;14817;57.104;-2.094;2023-02-08T08:50:18;101365.56;;;5.81;100.00
27334;BME280;14817;57.104;-2.094;2023-02-08T08:52:44;101350.53;;;5.95;100.00
27334;BME280;14817;57.104;-2.094;2023-02-08T08:55:11;101352.03;;;5.99;100.00
27334;BME280;14817;57.104;-2.094;2023-02-08T08:57:37;101357.25;;;6.00;100.00
27334;BME280;14817;57.104;-2.094;2023-02-08T09:00:04;101346.81;;;5.97;100.00
27334;BME280;14817;57.104;-2.094;2023-02-08T09:02:31;101349.59;;;5.96;100.00
27334;BME280;14817;57.104;-2.094;2023-02-08T09:04:57;101338.81;;;5.97;100.00
27334;BME280;14817;57.104;-2.094;2023-02-08T09:07:25;101325.44;;;5.99;100.00
27334;BME280;14817;57.104;-2.094;2023-02-08T09:09:52;101319.28;;;5.98;100.00
27334;BME280;14817;57.104;-2.094;2023-02-08T09:12:18;101320.13;;;5.99;100.00
27334;BME280;14817;57.104;-2.094;2023-02-08T09:14:45;101307.91;;;5.96;100.00
27334;BME280;14817;57.104;-2.094;2023-02-08T09:17:12;101305.88;;;6.00;100.00
27334;BME280;14817;57.104;-2.094;2023-02-08T09:19:38;101292.69;;;5.98;100.00
27334;BME280;14817;57.104;-2.094;2023-02-08T09:22:06;101282.72;;;6.02;100.00
27334;BME280;14817;57.104;-2.094;2023-02-08T09:24:33;101286.66;;;6.09;100.00
27334;BME280;14817;57.104;-2.094;2023-02-08T09:26:59;101283.75;;;6.12;100.00
27334;BME280;14817;57.104;-2.094;2023-02-08T09:29:26;101279.94;;;6.16;100.00
27334;BME280;14817;57.104;-2.094;2023-02-08T09:31:55;101272.72;;;6.18;100.00
27334;BME280;14817;57.104;-2.094;2023-02-08T09:34:22;101256.75;;;6.18;100.00
27334;BME280;14817;57.104;-2.094;2023-02-08T09:36:48;101250.25;;;6.22;100.00
27334;BME280;14817;57.104;-2.094;2023-02-08T09:39:16;101239.94;;;6.30;100.00
27334;BME280;14817;57.104;-2.094;2023-02-08T09:47:01;101238.34;;;6.41;100.00
27334;BME280;14817;57.104;-2.094;2023-02-08T09:49:33;101253.16;;;6.45;100.00
27334;BME280;14817;57.104;-2.094;2023-02-08T09:52:01;101233.97;;;6.52;100.00
27334;BME280;14817;57.104;-2.094;2023-02-08T09:54:36;101239.69;;;6.59;100.00
27334;BME280;14817;57.104;-2.094;2023-02-08T09:57:08;101230.75;;;6.60;100.00
27334;BME280;14817;57.104;-2.094;2023-02-08T09:59:37;101221.16;;;6.70;100.00
27334;BME280;14817;57.104;-2.094;2023-02-08T10:02:22;101223.38;;;6.77;100.00
27334;BME280;14817;57.104;-2.094;2023-02-08T10:07:29;101212.00;;;6.74;100.00
27334;BME280;14817;57.104;-2.094;2023-02-08T10:10:00;101212.81;;;6.88;100.00
27334;BME280;14817;57.104;-2.094;2023-02-08T10:20:19;101214.28;;;6.92;100.00
27334;BME280;14817;57.104;-2.094;2023-02-08T10:33:16;101190.94;;;6.95;100.00
27334;BME280;14817;57.104;-2.094;2023-02-08T10:35:47;101178.97;;;7.01;100.00
27334;BME280;14817;57.104;-2.094;2023-02-08T10:41:06;101173.56;;;7.03;100.00
27334;BME280;14817;57.104;-2.094;2023-02-08T10:48:44;101157.34;;;7.06;100.00
27334;BME280;14817;57.104;-2.094;2023-02-08T10:51:15;101153.47;;;7.10;100.00
27334;BME280;14817;57.104;-2.094;2023-02-08T10:53:43;101148.53;;;7.16;100.00
27334;BME280;14817;57.104;-2.094;2023-02-08T10:59:00;101118.94;;;7.21;100.00
27334;BME280;14817;57.104;-2.094;2023-02-08T11:01:31;101118.94;;;7.21;100.00
27334;BME280;14817;57.104;-2.094;2023-02-08T11:03:59;101105.09;;;7.27;100.00
27334;BME280;14817;57.104;-2.094;2023-02-08T11:06:26;101109.69;;;7.25;100.00
27334;BME280;14817;57.104;-2.094;2023-02-08T11:08:53;101103.91;;;7.31;100.00
27334;BME280;14817;57.104;-2.094;2023-02-08T11:11:20;101086.63;;;7.37;100.00
27334;BME280;14817;57.104;-2.094;2023-02-08T11:13:47;101077.66;;;7.38;100.00
27334;BME280;14817;57.104;-2.094;2023-02-08T11:16:20;101081.03;;;7.40;100.00
27334;BME280;14817;57.104;-2.094;2023-02-08T11:18:48;101074.97;;;7.38;100.00
27334;BME280;14817;57.104;-2.094;2023-02-08T11:21:21;101064.00;;;7.43;100.00
27334;BME280;14817;57.104;-2.094;2023-02-08T11:23:52;101054.66;;;7.37;100.00
27334;BME280;14817;57.104;-2.094;2023-02-08T11:31:34;101039.88;;;7.33;100.00
27334;BME280;14817;57.104;-2.094;2023-02-08T11:36:29;101042.34;;;7.12;100.00
27334;BME280;14817;57.104;-2.094;2023-02-08T11:38:59;101021.16;;;7.10;100.00
27334;BME280;14817;57.104;-2.094;2023-02-08T11:41:26;101014.63;;;7.03;100.00
27334;BME280;14817;57.104;-2.094;2023-02-08T11:46:21;101001.09;;;7.06;100.00
27334;BME280;14817;57.104;-2.094;2023-02-08T11:48:49;101002.88;;;7.06;100.00
27334;BME280;14817;57.104;-2.094;2023-02-08T11:53:55;100993.94;;;7.07;100.00
27334;BME280;14817;57.104;-2.094;2023-02-08T11:56:23;100983.50;;;7.04;100.00
27334;BME280;14817;57.104;-2.094;2023-02-08T11:58:57;100978.44;;;7.01;100.00
27334;BME280;14817;57.104;-2.094;2023-02-08T12:01:26;100981.94;;;7.01;100.00
27334;BME280;14817;57.104;-2.094;2023-02-08T12:03:55;100970.06;;;7.05;100.00
27334;BME280;14817;57.104;-2.094;2023-02-08T12:08:59;100974.66;;;7.03;100.00
27334;BME280;14817;57.104;-2.094;2023-02-08T12:14:14;100974.94;;;7.11;100.00
27334;BME280;14817;57.104;-2.094;2023-02-08T12:16:54;100976.88;;;7.21;100.00
27334;BME280;14817;57.104;-2.094;2023-02-08T12:22:00;100986.94;;;7.28;100.00
27334;BME280;14817;57.104;-2.094;2023-02-08T12:24:41;100964.91;;;7.38;100.00
27334;BME280;14817;57.104;-2.094;2023-02-08T12:48:45;100907.88;;;7.18;100.00
27334;BME280;14817;57.104;-2.094;2023-02-08T12:51:24;100925.06;;;7.25;100.00
27334;BME280;14817;57.104;-2.094;2023-02-08T12:53:53;100892.63;;;7.20;100.00
27334;BME280;14817;57.104;-2.094;2023-02-08T12:56:22;100888.34;;;7.06;100.00
27334;BME280;14817;57.104;-2.094;2023-02-08T12:58:51;100869.13;;;7.02;100.00
27334;BME280;14817;57.104;-2.094;2023-02-08T13:01:35;100857.63;;;7.02;100.00
27334;BME280;14817;57.104;-2.094;2023-02-08T13:04:05;100870.09;;;7.01;100.00
27334;BME280;14817;57.104;-2.094;2023-02-08T13:06:40;100850.13;;;7.07;100.00
27334;BME280;14817;57.104;-2.094;2023-02-08T13:09:13;100847.69;;;6.92;100.00
27334;BME280;14817;57.104;-2.094;2023-02-08T13:14:31;100844.66;;;6.97;100.00
27334;BME280;14817;57.104;-2.094;2023-02-08T13:17:02;100839.69;;;7.04;100.00
27334;BME280;14817;57.104;-2.094;2023-02-08T13:19:41;100821.69;;;6.96;100.00
27334;BME280;14817;57.104;-2.094;2023-02-08T13:22:24;100827.72;;;7.09;100.00
27334;BME280;14817;57.104;-2.094;2023-02-08T13:24:51;100811.28;;;7.04;100.00
27334;BME280;14817;57.104;-2.094;2023-02-08T13:27:32;100790.69;;;7.06;100.00
27334;BME280;14817;57.104;-2.094;2023-02-08T13:29:59;100791.03;;;7.13;100.00
27334;BME280;14817;57.104;-2.094;2023-02-08T13:32:30;100774.34;;;7.00;100.00
27334;BME280;14817;57.104;-2.094;2023-02-08T13:35:01;100772.53;;;7.11;100.00
27334;BME280;14817;57.104;-2.094;2023-02-08T13:37:32;100757.03;;;7.05;100.00
27334;BME280;14817;57.104;-2.094;2023-02-08T13:40:05;100762.72;;;7.12;100.00
27334;BME280;14817;57.104;-2.094;2023-02-08T13:42:40;100756.28;;;7.14;100.00
27334;BME280;14817;57.104;-2.094;2023-02-08T13:45:09;100742.03;;;7.04;100.00
27334;BME280;14817;57.104;-2.094;2023-02-08T13:47:47;100740.44;;;7.02;100.00
27334;BME280;14817;57.104;-2.094;2023-02-08T13:53:03;100736.34;;;6.98;100.00
27334;BME280;14817;57.104;-2.094;2023-02-08T13:58:33;100734.31;;;6.90;100.00
27334;BME280;14817;57.104;-2.094;2023-02-08T14:03:20;100727.78;;;6.83;100.00
27334;BME280;14817;57.104;-2.094;2023-02-08T14:05:48;100720.88;;;6.91;100.00
27334;BME280;14817;57.104;-2.094;2023-02-08T14:08:22;100716.00;;;7.08;100.00
27334;BME280;14817;57.104;-2.094;2023-02-08T14:11:38;100719.25;;;7.11;100.00
27334;BME280;14817;57.104;-2.094;2023-02-08T14:19:41;100709.56;;;7.10;100.00
27334;BME280;14817;57.104;-2.094;2023-02-08T14:21:48;100717.44;;;7.12;100.00
27334;BME280;14817;57.104;-2.094;2023-02-08T14:24:38;100693.72;;;7.09;100.00
27334;BME280;14817;57.104;-2.094;2023-02-08T14:27:26;100689.84;;;7.13;100.00
27334;BME280;14817;57.104;-2.094;2023-02-08T14:32:25;100673.22;;;7.21;100.00
27334;BME280;14817;57.104;-2.094;2023-02-08T14:35:06;100677.59;;;7.22;100.00
27334;BME280;14817;57.104;-2.094;2023-02-08T14:37:34;100671.53;;;7.20;100.00
27334;BME280;14817;57.104;-2.094;2023-02-08T14:47:56;100647.56;;;7.20;100.00
27334;BME280;14817;57.104;-2.094;2023-02-08T14:50:30;100635.09;;;7.20;100.00
27334;BME280;14817;57.104;-2.094;2023-02-08T14:53:03;100640.88;;;7.25;100.00
27334;BME280;14817;57.104;-2.094;2023-02-08T14:55:36;100651.78;;;7.22;100.00
27334;BME280;14817;57.104;-2.094;2023-02-08T14:58:05;100655.56;;;7.20;100.00
27334;BME280;14817;57.104;-2.094;2023-02-08T15:00:35;100648.28;;;7.22;100.00
27334;BME280;14817;57.104;-2.094;2023-02-08T15:03:03;100643.91;;;7.21;100.00
27334;BME280;14817;57.104;-2.094;2023-02-08T15:05:33;100658.66;;;7.25;100.00
27334;BME280;14817;57.104;-2.094;2023-02-08T15:08:01;100641.13;;;7.22;100.00
27334;BME280;14817;57.104;-2.094;2023-02-08T15:10:28;100643.69;;;7.24;100.00
27334;BME280;14817;57.104;-2.094;2023-02-08T15:12:57;100642.19;;;7.31;100.00
27334;BME280;14817;57.104;-2.094;2023-02-08T15:15:33;100637.56;;;7.33;100.00
27334;BME280;14817;57.104;-2.094;2023-02-08T15:18:00;100629.69;;;7.31;100.00